PILOTS ONLINE: 204    ATC ONLINE: 39

Location

IATA FOE
City Topeka
Country  United States
Latitude 38° 57' 3" N
Longitude 95° 39' 48" W
Elevation 1078 ft
Type Medium Airport

Weather

METAR
2014/07/10 04:53
KFOE 100453Z AUTO 14005KT 9SM CLR 22/18 A3006 RMK AO2 SLP169 T02220178
TAF
2014/07/10 04:42
TAF 
      AMD KFOE 100341Z 1004/1024 10006KT P6SM -SHRA SCT070 BKN120 
      TEMPO 1006/1009 6SM -TSRA BKN060CB OVC120 
     FM101100 10005KT P6SM BKN080 
     FM101700 14013G21KT P6SM SCT100

Runways

03/21 7000 ft / 150 ft
13/31 12802 ft / 200 ft

Outbound flights

Inbound flights


Spotted incorrect airport information? Please login with your VATSIM ID.